Time;durP1;ratioP1;P1;durP2;ratioP2;P2;SDS_P1;SDS_P2;PMS_P1;PMS_P2;Temp;Humidity;BMP_temperature;BMP_pressure;BME280_temperature;BME280_humidity;BME280_pressure;Samples;Min_cycle;Max_cycle;Signal;HPM_P1;HPM_P2
2024/01/09 00:00:51;;;;;;;;;;;1.10;99.90;;;;;;5115628;28;20003;-73
2024/01/09 00:03:16;;;;;;;;;;;1.00;99.90;;;;;;5115981;28;19904;-73
2024/01/09 00:05:42;;;;;;;;;;;0.90;99.90;;;;;;5116119;27;20006;-73
2024/01/09 00:08:07;;;;;;;;;;;0.80;99.90;;;;;;5115872;28;20333;-72
2024/01/09 00:10:33;;;;;;;;;;;0.70;99.90;;;;;;5114858;28;19918;-73
2024/01/09 00:12:58;;;;;;;;;;;0.60;99.90;;;;;;5119908;28;19988;-73
2024/01/09 00:15:24;;;;;;;;;;;0.50;99.90;;;;;;5119815;28;20217;-73
2024/01/09 00:17:50;;;;;;;;;;;0.50;99.90;;;;;;5118460;28;19904;-73
2024/01/09 00:20:16;;;;;;;;;;;0.40;99.90;;;;;;5118210;28;19904;-73
2024/01/09 00:22:42;;;;;;;;;;;0.30;99.90;;;;;;5118331;28;20413;-72
2024/01/09 00:25:08;;;;;;;;;;;0.30;99.90;;;;;;5119726;28;20334;-73
2024/01/09 00:27:34;;;;;;;;;;;0.30;99.90;;;;;;5118569;28;19912;-72
2024/01/09 00:29:59;;;;;;;;;;;0.20;99.90;;;;;;5119593;28;20011;-73
2024/01/09 00:32:25;;;;;;;;;;;0.20;99.90;;;;;;5119570;28;19910;-73
2024/01/09 00:34:50;;;;;;;;;;;0.20;99.90;;;;;;5120081;28;19904;-73
2024/01/09 00:37:16;;;;;;;;;;;0.10;99.90;;;;;;5119194;28;19904;-73
2024/01/09 00:39:41;;;;;;;;;;;0.10;99.90;;;;;;5119480;28;19903;-73
2024/01/09 00:42:07;;;;;;;;;;;0.10;99.90;;;;;;5119636;28;19918;-73
2024/01/09 00:44:32;;;;;;;;;;;0.10;99.90;;;;;;5119452;27;19911;-73
2024/01/09 00:46:58;;;;;;;;;;;0.10;99.90;;;;;;5119170;27;19908;-73
2024/01/09 00:49:23;;;;;;;;;;;0.10;99.90;;;;;;5119447;28;19908;-73
2024/01/09 00:51:49;;;;;;;;;;;0.10;99.90;;;;;;5117836;28;19949;-73
2024/01/09 00:54:14;;;;;;;;;;;0.10;99.90;;;;;;5118171;28;19941;-72
2024/01/09 00:56:40;;;;;;;;;;;0.10;99.90;;;;;;5117110;28;19947;-72
2024/01/09 00:59:05;;;;;;;;;;;0.10;99.90;;;;;;5111243;28;20019;-72
2024/01/09 01:01:31;;;;;;;;;;;0.10;99.90;;;;;;5112574;28;19963;-73
2024/01/09 01:03:56;;;;;;;;;;;0.00;99.90;;;;;;5119071;28;19979;-73
2024/01/09 01:06:22;;;;;;;;;;;0.00;99.90;;;;;;5117388;28;19915;-73
2024/01/09 01:08:47;;;;;;;;;;;0.00;99.90;;;;;;5119164;27;19910;-72
2024/01/09 01:11:13;;;;;;;;;;;0.10;99.90;;;;;;5117295;28;19937;-72
2024/01/09 01:13:38;;;;;;;;;;;0.10;99.90;;;;;;5119054;28;19970;-72
2024/01/09 01:16:04;;;;;;;;;;;0.10;99.90;;;;;;5109235;28;19907;-72
2024/01/09 01:18:30;;;;;;;;;;;0.10;99.90;;;;;;5117498;28;19907;-72
2024/01/09 01:20:55;;;;;;;;;;;0.10;99.90;;;;;;5118626;28;19916;-72
2024/01/09 01:23:21;;;;;;;;;;;0.10;99.90;;;;;;5117430;28;19908;-72
2024/01/09 01:25:47;;;;;;;;;;;0.00;99.90;;;;;;5118450;28;20305;-72
2024/01/09 01:28:12;;;;;;;;;;;0.00;99.90;;;;;;5118457;28;20456;-72
2024/01/09 01:30:38;;;;;;;;;;;-0.10;99.90;;;;;;5118189;28;19957;-72
2024/01/09 01:33:04;;;;;;;;;;;-0.10;99.90;;;;;;5105934;28;19956;-72
2024/01/09 01:35:29;;;;;;;;;;;-0.20;99.90;;;;;;5118634;28;19907;-72
2024/01/09 01:37:55;;;;;;;;;;;-0.20;99.90;;;;;;5116837;28;19911;-72
2024/01/09 01:40:20;;;;;;;;;;;-0.40;99.90;;;;;;5116954;28;19904;-72
2024/01/09 01:42:46;;;;;;;;;;;-0.30;99.90;;;;;;5116996;28;19908;-72
2024/01/09 01:45:16;;;;;;;;;;;-0.40;99.90;;;;;;5116798;28;20473;-72
2024/01/09 01:47:45;;;;;;;;;;;-0.40;99.90;;;;;;5117940;28;19907;-72
2024/01/09 01:50:12;;;;;;;;;;;-0.40;99.90;;;;;;5117026;28;19996;-72
2024/01/09 01:52:38;;;;;;;;;;;-0.40;99.90;;;;;;5116624;28;19965;-72
2024/01/09 01:55:04;;;;;;;;;;;-0.40;99.90;;;;;;5117768;28;19908;-72
2024/01/09 01:57:29;;;;;;;;;;;-0.50;99.90;;;;;;5118078;27;20421;-72
2024/01/09 01:59:57;;;;;;;;;;;-0.40;99.90;;;;;;5117929;28;19903;-72
2024/01/09 02:02:25;;;;;;;;;;;-0.50;99.90;;;;;;5104581;28;19908;-72
2024/01/09 02:04:50;;;;;;;;;;;-0.50;99.90;;;;;;5117655;28;20443;-72
2024/01/09 02:07:16;;;;;;;;;;;-0.60;99.90;;;;;;5113388;27;19919;-72
2024/01/09 02:09:41;;;;;;;;;;;-0.60;99.90;;;;;;5111157;28;19911;-72
2024/01/09 02:12:07;;;;;;;;;;;-0.60;99.90;;;;;;5116474;28;19956;-72
2024/01/09 02:14:33;;;;;;;;;;;-0.50;99.90;;;;;;5117820;28;20402;-72
2024/01/09 02:16:59;;;;;;;;;;;-0.50;99.90;;;;;;5102755;28;19971;-72
2024/01/09 02:19:24;;;;;;;;;;;-0.60;99.90;;;;;;5117376;28;20403;-72
2024/01/09 02:21:51;;;;;;;;;;;-0.60;99.90;;;;;;5117401;28;19910;-72
2024/01/09 02:24:17;;;;;;;;;;;-0.60;99.90;;;;;;5116417;28;20378;-72
2024/01/09 02:26:46;;;;;;;;;;;-0.60;99.90;;;;;;5103966;28;19916;-72
2024/01/09 02:29:15;;;;;;;;;;;-0.70;99.90;;;;;;5117480;28;19908;-72
2024/01/09 02:31:40;;;;;;;;;;;-0.70;99.90;;;;;;5116048;28;19904;-72
2024/01/09 02:34:06;;;;;;;;;;;-0.80;99.90;;;;;;5115878;28;19903;-72
2024/01/09 02:36:32;;;;;;;;;;;-0.70;99.90;;;;;;5098038;28;19949;-72
2024/01/09 02:38:57;;;;;;;;;;;-0.60;99.90;;;;;;5104405;28;19971;-72
2024/01/09 02:41:23;;;;;;;;;;;-0.60;99.90;;;;;;5116558;28;19918;-72
2024/01/09 02:43:48;;;;;;;;;;;-0.50;99.90;;;;;;5117120;28;19934;-72
2024/01/09 02:46:14;;;;;;;;;;;-0.40;99.90;;;;;;5115208;28;19935;-72
2024/01/09 02:48:39;;;;;;;;;;;-0.40;99.90;;;;;;5115797;28;19967;-72
2024/01/09 02:51:05;;;;;;;;;;;-0.30;99.90;;;;;;5116942;28;19961;-72
2024/01/09 02:53:30;;;;;;;;;;;-0.30;99.90;;;;;;5116883;28;19943;-72
2024/01/09 02:55:56;;;;;;;;;;;-0.20;99.90;;;;;;5116344;28;19959;-72
2024/01/09 02:58:21;;;;;;;;;;;-0.20;99.90;;;;;;5115449;28;20710;-74
2024/01/09 03:00:47;;;;;;;;;;;-0.10;99.90;;;;;;5116733;28;20397;-72
2024/01/09 03:03:12;;;;;;;;;;;-0.10;99.90;;;;;;5116837;28;19919;-72
2024/01/09 03:05:38;;;;;;;;;;;-0.10;99.90;;;;;;5116597;28;20402;-72
2024/01/09 03:08:03;;;;;;;;;;;0.00;99.90;;;;;;5116676;28;19907;-72
2024/01/09 03:10:29;;;;;;;;;;;0.00;99.90;;;;;;5114908;28;19953;-72
2024/01/09 03:12:54;;;;;;;;;;;0.00;99.90;;;;;;5115613;28;19907;-72
2024/01/09 03:15:20;;;;;;;;;;;0.00;99.90;;;;;;5115051;28;19904;-72
2024/01/09 03:17:45;;;;;;;;;;;-0.10;99.90;;;;;;5116647;28;19911;-72
2024/01/09 03:20:11;;;;;;;;;;;0.00;99.90;;;;;;5114891;28;19907;-72
2024/01/09 03:22:37;;;;;;;;;;;-0.10;99.90;;;;;;5115265;28;19904;-72
2024/01/09 03:25:02;;;;;;;;;;;-0.10;99.90;;;;;;5116420;28;20403;-72
2024/01/09 03:27:28;;;;;;;;;;;-0.20;99.90;;;;;;5116582;28;20294;-72
2024/01/09 03:29:53;;;;;;;;;;;-0.20;99.90;;;;;;5116262;28;19999;-73
2024/01/09 03:32:19;;;;;;;;;;;-0.10;99.90;;;;;;5116481;28;19956;-72
2024/01/09 03:34:44;;;;;;;;;;;-0.10;99.90;;;;;;5116000;28;19910;-72
2024/01/09 03:37:11;;;;;;;;;;;-0.10;99.90;;;;;;5115040;28;20355;-73
2024/01/09 03:39:36;;;;;;;;;;;-0.10;99.90;;;;;;5116340;28;19904;-72
2024/01/09 03:42:02;;;;;;;;;;;0.00;99.90;;;;;;5114863;28;19926;-73
2024/01/09 03:44:27;;;;;;;;;;;0.00;99.90;;;;;;5116009;28;20462;-73
2024/01/09 03:46:53;;;;;;;;;;;0.00;99.90;;;;;;5117032;28;19977;-73
2024/01/09 03:49:19;;;;;;;;;;;0.00;99.90;;;;;;5120446;28;20636;-73
2024/01/09 03:51:44;;;;;;;;;;;0.00;99.90;;;;;;5120325;28;20334;-73
2024/01/09 03:54:10;;;;;;;;;;;0.00;99.90;;;;;;5120327;28;19904;-73
2024/01/09 03:56:35;;;;;;;;;;;0.10;99.90;;;;;;5120542;28;19919;-72
2024/01/09 03:59:01;;;;;;;;;;;0.10;99.90;;;;;;5120232;28;19911;-73
2024/01/09 04:11:09;;;;;;;;;;;0.10;99.90;;;;;;5126841;27;19908;-72
2024/01/09 04:13:35;;;;;;;;;;;0.10;99.90;;;;;;5140923;27;19998;-72
2024/01/09 04:16:00;;;;;;;;;;;0.10;99.90;;;;;;5106333;27;19916;-72
2024/01/09 04:18:26;;;;;;;;;;;0.20;99.90;;;;;;5099901;28;20375;-72
2024/01/09 04:20:51;;;;;;;;;;;0.10;99.90;;;;;;5099744;28;20466;-72
2024/01/09 04:23:17;;;;;;;;;;;0.20;99.90;;;;;;5098298;28;20387;-72
2024/01/09 04:25:42;;;;;;;;;;;0.20;99.90;;;;;;5098340;28;19973;-72
2024/01/09 04:28:08;;;;;;;;;;;0.20;99.90;;;;;;5099832;28;19949;-72
2024/01/09 04:30:33;;;;;;;;;;;0.30;99.90;;;;;;5101607;28;20252;-72
2024/01/09 04:32:59;;;;;;;;;;;0.30;99.90;;;;;;5107811;28;20261;-73
2024/01/09 04:35:24;;;;;;;;;;;0.30;99.90;;;;;;5099618;28;20463;-72
2024/01/09 04:37:50;;;;;;;;;;;0.30;99.90;;;;;;5099598;28;20376;-73
2024/01/09 04:40:15;;;;;;;;;;;0.30;99.90;;;;;;5098119;28;20388;-72
2024/01/09 04:42:41;;;;;;;;;;;0.40;99.90;;;;;;5099499;28;19956;-72
2024/01/09 04:45:06;;;;;;;;;;;0.30;99.90;;;;;;5099157;28;19908;-72
2024/01/09 04:47:32;;;;;;;;;;;0.30;99.90;;;;;;5105775;28;19904;-73
2024/01/09 04:49:57;;;;;;;;;;;0.40;99.90;;;;;;5099342;28;19904;-73
2024/01/09 04:52:23;;;;;;;;;;;0.40;99.90;;;;;;5097849;28;20299;-73
2024/01/09 04:54:49;;;;;;;;;;;0.40;99.90;;;;;;5097895;28;19908;-73
2024/01/09 04:57:14;;;;;;;;;;;0.40;99.90;;;;;;5097457;28;19923;-72
2024/01/09 04:59:41;;;;;;;;;;;0.40;99.90;;;;;;5099165;28;19931;-72
2024/01/09 05:02:06;;;;;;;;;;;0.40;99.90;;;;;;5097647;28;19914;-73
2024/01/09 05:04:32;;;;;;;;;;;0.50;99.90;;;;;;5099077;28;19908;-72
2024/01/09 05:06:57;;;;;;;;;;;0.50;99.90;;;;;;5097480;28;19938;-72
2024/01/09 05:09:23;;;;;;;;;;;0.50;99.90;;;;;;5099020;28;19908;-72
2024/01/09 05:11:49;;;;;;;;;;;0.50;99.90;;;;;;5096983;28;19904;-73
2024/01/09 05:14:14;;;;;;;;;;;0.50;99.90;;;;;;5098479;28;19916;-72
2024/01/09 05:16:39;;;;;;;;;;;0.50;99.90;;;;;;5098136;28;19904;-72
2024/01/09 05:19:05;;;;;;;;;;;0.50;99.90;;;;;;5092501;28;19916;-72
2024/01/09 05:21:31;;;;;;;;;;;0.50;99.90;;;;;;5093902;28;19907;-72
2024/01/09 05:23:56;;;;;;;;;;;0.50;99.90;;;;;;5100735;28;19912;-72
2024/01/09 05:26:22;;;;;;;;;;;0.50;99.90;;;;;;5104108;28;19912;-72
2024/01/09 05:28:47;;;;;;;;;;;0.50;99.90;;;;;;5092410;28;19908;-72
2024/01/09 05:31:13;;;;;;;;;;;0.50;99.90;;;;;;5098842;28;19996;-72
2024/01/09 05:33:39;;;;;;;;;;;0.50;99.90;;;;;;5093945;28;20310;-72
2024/01/09 05:36:05;;;;;;;;;;;0.40;99.90;;;;;;5107197;28;20876;-72
2024/01/09 05:38:30;;;;;;;;;;;0.40;99.90;;;;;;5095653;28;19908;-72
2024/01/09 05:40:56;;;;;;;;;;;0.50;99.90;;;;;;5093596;28;19946;-72
2024/01/09 05:43:21;;;;;;;;;;;0.50;99.90;;;;;;5095701;28;19934;-72
2024/01/09 05:45:47;;;;;;;;;;;0.40;99.90;;;;;;5100681;28;19915;-72
2024/01/09 05:48:12;;;;;;;;;;;0.40;99.90;;;;;;5103482;28;20391;-72
2024/01/09 05:50:38;;;;;;;;;;;0.30;99.90;;;;;;5091809;28;20367;-72
2024/01/09 05:53:04;;;;;;;;;;;0.30;99.90;;;;;;5101396;28;19908;-72
2024/01/09 05:55:29;;;;;;;;;;;0.20;99.90;;;;;;5093220;28;19919;-72
2024/01/09 05:57:55;;;;;;;;;;;0.00;99.90;;;;;;5101844;28;19960;-72
2024/01/09 06:00:20;;;;;;;;;;;-0.10;99.90;;;;;;5093321;28;19908;-72
2024/01/09 06:02:46;;;;;;;;;;;-0.20;99.90;;;;;;5102199;28;19965;-72
2024/01/09 06:05:11;;;;;;;;;;;-0.30;99.90;;;;;;5093346;28;20660;-72
2024/01/09 06:07:37;;;;;;;;;;;-0.50;99.90;;;;;;5091839;28;20372;-72
2024/01/09 06:10:03;;;;;;;;;;;-0.50;99.90;;;;;;5106669;28;19912;-72
2024/01/09 06:12:28;;;;;;;;;;;-0.60;99.90;;;;;;5106096;28;19916;-72
2024/01/09 06:14:54;;;;;;;;;;;-0.60;99.90;;;;;;5108855;28;19903;-72
2024/01/09 06:17:19;;;;;;;;;;;-0.60;99.90;;;;;;5103733;27;19908;-72
2024/01/09 06:19:45;;;;;;;;;;;-0.50;99.90;;;;;;5099964;28;20352;-72
2024/01/09 06:22:12;;;;;;;;;;;-0.50;99.90;;;;;;5102310;28;20360;-72
2024/01/09 06:24:37;;;;;;;;;;;-0.40;99.90;;;;;;5101892;28;19933;-71
2024/01/09 06:27:03;;;;;;;;;;;-0.30;99.90;;;;;;5105867;28;20370;-72
2024/01/09 06:29:29;;;;;;;;;;;-0.30;99.90;;;;;;5108467;28;20280;-72
2024/01/09 06:31:54;;;;;;;;;;;-0.20;99.90;;;;;;5105388;28;19929;-72
2024/01/09 06:34:20;;;;;;;;;;;-0.10;99.90;;;;;;5106360;28;20447;-72
2024/01/09 06:36:45;;;;;;;;;;;-0.10;99.90;;;;;;5107137;28;20435;-72
2024/01/09 06:39:12;;;;;;;;;;;-0.10;99.90;;;;;;5107748;28;20338;-72
2024/01/09 06:41:37;;;;;;;;;;;0.00;99.90;;;;;;5103429;28;19908;-72
2024/01/09 06:44:03;;;;;;;;;;;0.00;99.90;;;;;;5109020;28;20048;-72
2024/01/09 06:46:28;;;;;;;;;;;0.00;99.90;;;;;;5098303;28;19946;-72
2024/01/09 06:48:54;;;;;;;;;;;0.10;99.90;;;;;;5104128;28;20288;-72
2024/01/09 06:51:20;;;;;;;;;;;0.10;99.90;;;;;;5098913;28;19987;-72
2024/01/09 06:53:45;;;;;;;;;;;0.10;99.90;;;;;;5104684;28;19914;-72
2024/01/09 06:56:11;;;;;;;;;;;0.10;99.90;;;;;;5104978;28;19926;-72
2024/01/09 06:58:36;;;;;;;;;;;0.10;99.90;;;;;;5108382;28;19916;-72
2024/01/09 07:01:03;;;;;;;;;;;0.10;99.90;;;;;;5103041;28;19946;-72
2024/01/09 07:03:30;;;;;;;;;;;0.10;99.90;;;;;;5107643;28;19999;-71
2024/01/09 07:05:55;;;;;;;;;;;0.00;99.90;;;;;;5103788;28;19908;-72
2024/01/09 07:08:21;;;;;;;;;;;-0.10;99.90;;;;;;5110453;28;19956;-73
2024/01/09 07:10:47;;;;;;;;;;;-0.10;99.90;;;;;;5102884;28;19958;-74
2024/01/09 07:13:12;;;;;;;;;;;-0.10;99.90;;;;;;5105678;28;19911;-73
2024/01/09 07:15:38;;;;;;;;;;;-0.20;99.90;;;;;;5100890;28;19915;-72
2024/01/09 07:18:04;;;;;;;;;;;-0.30;99.90;;;;;;5108511;28;20702;-72
2024/01/09 07:20:29;;;;;;;;;;;-0.30;99.90;;;;;;5102100;28;19907;-72
2024/01/09 07:22:55;;;;;;;;;;;-0.40;99.90;;;;;;5103350;28;19958;-72
2024/01/09 07:25:20;;;;;;;;;;;-0.50;99.90;;;;;;5099221;28;20399;-71
2024/01/09 07:27:46;;;;;;;;;;;-0.60;99.90;;;;;;5104632;28;19904;-71
2024/01/09 07:30:12;;;;;;;;;;;-0.70;99.90;;;;;;5106264;28;20355;-71
2024/01/09 07:32:37;;;;;;;;;;;-0.70;99.90;;;;;;5108571;28;19908;-71
2024/01/09 07:35:04;;;;;;;;;;;-0.80;99.90;;;;;;5104268;28;19911;-72
2024/01/09 07:37:29;;;;;;;;;;;-0.90;99.90;;;;;;5108697;28;19914;-71
2024/01/09 07:39:55;;;;;;;;;;;-0.90;99.90;;;;;;5102737;28;19923;-71
2024/01/09 07:42:20;;;;;;;;;;;-1.00;99.90;;;;;;5106589;28;19914;-72
2024/01/09 07:44:46;;;;;;;;;;;-1.00;99.90;;;;;;5107115;28;19918;-72
2024/01/09 07:47:12;;;;;;;;;;;-1.00;99.90;;;;;;5100003;28;19911;-72
2024/01/09 07:49:40;;;;;;;;;;;-0.90;99.90;;;;;;5101627;28;19907;-72
2024/01/09 07:52:06;;;;;;;;;;;-0.90;99.90;;;;;;5105642;28;19961;-72
2024/01/09 07:54:32;;;;;;;;;;;-0.90;99.90;;;;;;5104068;28;19904;-72
2024/01/09 07:56:57;;;;;;;;;;;-0.90;99.90;;;;;;5101371;28;19924;-72
2024/01/09 07:59:23;;;;;;;;;;;-0.90;99.90;;;;;;5103213;28;19995;-72
2024/01/09 08:01:54;;;;;;;;;;;-0.90;99.90;;;;;;5103775;28;19999;-72
2024/01/09 08:04:21;;;;;;;;;;;-0.80;99.90;;;;;;5104741;28;19948;-72
2024/01/09 08:06:46;;;;;;;;;;;-0.90;99.90;;;;;;5104476;28;19908;-73
2024/01/09 08:09:13;;;;;;;;;;;-0.90;99.90;;;;;;5098294;28;20284;-72
2024/01/09 08:11:38;;;;;;;;;;;-0.80;99.90;;;;;;5105749;28;19908;-72
2024/01/09 08:14:04;;;;;;;;;;;-0.80;99.90;;;;;;5103143;28;19954;-72
2024/01/09 08:16:29;;;;;;;;;;;-0.80;99.90;;;;;;5102707;28;19956;-72
2024/01/09 08:18:55;;;;;;;;;;;-0.80;99.90;;;;;;5105063;28;19999;-72
2024/01/09 08:21:20;;;;;;;;;;;-0.70;99.90;;;;;;5101573;28;19942;-72
2024/01/09 08:23:46;;;;;;;;;;;-0.70;99.90;;;;;;5104251;28;19908;-73
2024/01/09 08:26:13;;;;;;;;;;;-0.60;99.90;;;;;;5106799;28;20002;-75
2024/01/09 08:28:38;;;;;;;;;;;-0.60;99.90;;;;;;5099860;28;20406;-73
2024/01/09 08:31:04;;;;;;;;;;;-0.50;99.90;;;;;;5098327;28;19939;-73
2024/01/09 08:33:33;;;;;;;;;;;-0.50;99.90;;;;;;5104585;28;19991;-73
2024/01/09 08:35:59;;;;;;;;;;;-0.40;99.90;;;;;;5110229;28;19994;-73
2024/01/09 08:38:25;;;;;;;;;;;-0.30;99.90;;;;;;5109857;28;20002;-73
2024/01/09 08:40:53;;;;;;;;;;;-0.20;99.90;;;;;;5104529;28;19914;-73
2024/01/09 08:43:19;;;;;;;;;;;-0.10;99.90;;;;;;5106847;28;19907;-73
2024/01/09 08:45:46;;;;;;;;;;;-0.10;99.90;;;;;;5110014;28;19914;-74
2024/01/09 08:48:11;;;;;;;;;;;0.00;99.90;;;;;;5103586;28;19969;-74
2024/01/09 08:50:37;;;;;;;;;;;0.00;99.90;;;;;;5109726;28;19908;-74
2024/01/09 08:53:02;;;;;;;;;;;0.10;99.90;;;;;;5112631;28;19908;-74
2024/01/09 08:55:28;;;;;;;;;;;0.20;99.90;;;;;;5108701;28;19911;-74
2024/01/09 08:57:53;;;;;;;;;;;0.10;99.90;;;;;;5104813;28;19944;-74
2024/01/09 09:00:19;;;;;;;;;;;0.20;99.90;;;;;;5109149;28;20329;-74
2024/01/09 09:02:44;;;;;;;;;;;0.20;99.90;;;;;;5100274;28;20338;-75
2024/01/09 09:05:11;;;;;;;;;;;0.30;99.90;;;;;;5106703;28;19907;-74
2024/01/09 09:07:37;;;;;;;;;;;0.30;99.90;;;;;;5103558;28;20384;-74
2024/01/09 09:10:02;;;;;;;;;;;0.30;99.90;;;;;;5108073;27;20434;-74
2024/01/09 09:12:28;;;;;;;;;;;0.50;99.90;;;;;;5110849;27;19908;-74
2024/01/09 09:14:54;;;;;;;;;;;0.50;99.90;;;;;;5105637;28;20030;-74
2024/01/09 09:17:19;;;;;;;;;;;0.60;99.90;;;;;;5103926;28;20007;-74
2024/01/09 09:19:45;;;;;;;;;;;0.70;99.90;;;;;;5106190;28;19908;-74
2024/01/09 09:22:12;;;;;;;;;;;0.70;99.90;;;;;;5104512;28;19965;-75
2024/01/09 09:24:38;;;;;;;;;;;0.70;99.90;;;;;;5101230;28;20485;-75
2024/01/09 09:27:04;;;;;;;;;;;0.80;99.90;;;;;;5108174;28;19912;-75
2024/01/09 09:29:30;;;;;;;;;;;0.80;99.90;;;;;;5107161;28;19908;-75
2024/01/09 09:31:55;;;;;;;;;;;0.90;99.90;;;;;;5108921;28;19908;-74
2024/01/09 09:34:21;;;;;;;;;;;0.90;99.90;;;;;;5114156;28;20013;-79
2024/01/09 09:36:46;;;;;;;;;;;0.90;99.90;;;;;;5111478;28;20364;-78
2024/01/09 09:39:13;;;;;;;;;;;0.90;99.90;;;;;;5112359;28;19904;-79
2024/01/09 09:41:43;;;;;;;;;;;1.00;99.90;;;;;;5117409;28;19947;-79
2024/01/09 09:44:11;;;;;;;;;;;1.00;99.90;;;;;;5112943;28;19916;-79
2024/01/09 09:46:39;;;;;;;;;;;1.00;99.90;;;;;;5111623;28;19903;-80
2024/01/09 09:49:05;;;;;;;;;;;1.10;99.90;;;;;;5116437;28;19908;-80
2024/01/09 09:51:31;;;;;;;;;;;1.20;99.90;;;;;;5117290;28;19907;-75
2024/01/09 09:53:57;;;;;;;;;;;1.30;99.90;;;;;;5114062;28;19908;-75
2024/01/09 09:56:24;;;;;;;;;;;1.30;99.90;;;;;;5108047;28;20170;-75
2024/01/09 09:58:49;;;;;;;;;;;1.30;99.90;;;;;;5114707;28;19912;-75
2024/01/09 10:01:15;;;;;;;;;;;1.30;99.90;;;;;;5107974;28;20283;-75
2024/01/09 10:03:47;;;;;;;;;;;1.30;99.90;;;;;;5108767;28;19903;-75
2024/01/09 10:06:14;;;;;;;;;;;1.50;99.90;;;;;;5110702;28;19915;-75
2024/01/09 10:08:41;;;;;;;;;;;1.40;99.90;;;;;;5107319;28;19924;-75
2024/01/09 10:11:06;;;;;;;;;;;1.50;99.90;;;;;;5113466;28;19977;-75
2024/01/09 10:13:32;;;;;;;;;;;1.60;99.90;;;;;;5115063;28;19904;-75
2024/01/09 10:15:58;;;;;;;;;;;1.60;99.90;;;;;;5113787;28;19903;-75
2024/01/09 10:18:27;;;;;;;;;;;1.70;99.90;;;;;;5112566;28;19990;-75
2024/01/09 10:20:52;;;;;;;;;;;1.80;99.90;;;;;;5111372;28;19903;-75
2024/01/09 10:23:18;;;;;;;;;;;1.90;99.90;;;;;;5112858;28;19990;-75
2024/01/09 10:25:44;;;;;;;;;;;2.00;99.90;;;;;;5113169;28;19907;-75
2024/01/09 10:28:14;;;;;;;;;;;2.10;99.90;;;;;;5108667;28;20041;-74
2024/01/09 10:30:40;;;;;;;;;;;2.10;99.90;;;;;;5111423;28;20803;-75
2024/01/09 10:33:09;;;;;;;;;;;2.00;99.90;;;;;;5112385;28;19943;-75
2024/01/09 10:35:34;;;;;;;;;;;2.00;99.90;;;;;;5111073;28;19904;-75
2024/01/09 10:38:00;;;;;;;;;;;1.90;99.90;;;;;;5112287;28;19915;-75
2024/01/09 10:40:26;;;;;;;;;;;2.00;99.90;;;;;;5111413;28;20487;-75
2024/01/09 10:42:51;;;;;;;;;;;2.00;99.90;;;;;;5107228;28;19997;-74
2024/01/09 10:45:19;;;;;;;;;;;2.00;99.90;;;;;;5111555;28;19957;-75
2024/01/09 10:47:45;;;;;;;;;;;2.10;99.90;;;;;;5111772;28;19908;-75
2024/01/09 10:50:11;;;;;;;;;;;2.10;99.90;;;;;;5112453;28;19964;-75
2024/01/09 10:52:37;;;;;;;;;;;2.10;99.90;;;;;;5110221;28;20007;-75
2024/01/09 10:55:05;;;;;;;;;;;2.20;99.90;;;;;;5111808;28;20044;-76
2024/01/09 10:57:30;;;;;;;;;;;2.20;99.90;;;;;;5110157;27;19927;-75
2024/01/09 10:59:59;;;;;;;;;;;2.20;99.90;;;;;;5110696;28;19912;-75
2024/01/09 11:02:26;;;;;;;;;;;2.20;99.90;;;;;;5114730;28;19911;-74
2024/01/09 11:04:52;;;;;;;;;;;2.20;99.90;;;;;;5112674;28;19908;-74
2024/01/09 11:07:18;;;;;;;;;;;2.20;99.90;;;;;;5109127;28;19911;-74
2024/01/09 11:09:47;;;;;;;;;;;2.30;99.90;;;;;;5113836;28;19922;-74
2024/01/09 11:12:15;;;;;;;;;;;2.30;99.90;;;;;;5106211;28;19912;-74
2024/01/09 11:14:42;;;;;;;;;;;2.40;99.90;;;;;;5108018;28;19907;-74
2024/01/09 11:17:08;;;;;;;;;;;2.40;99.90;;;;;;5105631;28;19916;-74
2024/01/09 11:19:35;;;;;;;;;;;2.50;99.90;;;;;;5104996;28;19910;-74
2024/01/09 11:22:17;;;;;;;;;;;2.50;99.90;;;;;;5102160;28;19920;-74
2024/01/09 11:24:47;;;;;;;;;;;2.50;99.90;;;;;;5100353;28;19911;-74
2024/01/09 11:27:14;;;;;;;;;;;2.50;99.90;;;;;;5107248;28;19965;-74
2024/01/09 11:29:46;;;;;;;;;;;2.50;99.90;;;;;;5101408;28;19931;-74
2024/01/09 11:32:11;;;;;;;;;;;2.50;99.90;;;;;;5102895;28;19971;-74
2024/01/09 11:34:41;;;;;;;;;;;2.50;99.90;;;;;;5104775;28;20740;-74
2024/01/09 11:37:11;;;;;;;;;;;2.40;99.90;;;;;;5106946;28;19985;-74
2024/01/09 11:39:38;;;;;;;;;;;2.40;99.90;;;;;;5100091;28;19912;-74
2024/01/09 11:42:03;;;;;;;;;;;2.40;99.90;;;;;;5106608;28;19907;-74
2024/01/09 11:44:29;;;;;;;;;;;2.50;99.90;;;;;;5101522;28;20779;-74
2024/01/09 11:46:55;;;;;;;;;;;2.50;99.90;;;;;;5103424;28;19908;-74
2024/01/09 11:49:20;;;;;;;;;;;2.60;99.90;;;;;;5102674;28;19966;-74
2024/01/09 11:51:46;;;;;;;;;;;2.60;99.90;;;;;;5105944;28;19987;-74
2024/01/09 11:54:12;;;;;;;;;;;2.60;99.90;;;;;;5105293;28;19947;-74
2024/01/09 11:56:38;;;;;;;;;;;2.70;99.90;;;;;;5098633;28;19921;-74
2024/01/09 11:59:04;;;;;;;;;;;2.70;99.90;;;;;;5102301;28;19915;-74
2024/01/09 12:01:29;;;;;;;;;;;2.80;99.90;;;;;;5109424;28;19907;-74
2024/01/09 12:03:56;;;;;;;;;;;2.80;99.90;;;;;;5102893;28;19908;-73
2024/01/09 12:06:22;;;;;;;;;;;2.90;99.90;;;;;;5100771;28;19911;-74
2024/01/09 12:08:48;;;;;;;;;;;2.90;99.90;;;;;;5107473;28;19915;-74
2024/01/09 12:11:13;;;;;;;;;;;2.90;99.90;;;;;;5102842;28;19908;-74
2024/01/09 12:13:39;;;;;;;;;;;2.90;99.90;;;;;;5105641;28;20383;-74
2024/01/09 12:16:14;;;;;;;;;;;2.90;99.90;;;;;;5108323;28;19910;-74
2024/01/09 12:18:50;;;;;;;;;;;3.00;99.90;;;;;;5107058;28;20496;-73
2024/01/09 12:21:16;;;;;;;;;;;2.90;99.90;;;;;;5104941;28;19923;-72
2024/01/09 12:23:42;;;;;;;;;;;3.00;99.90;;;;;;5108653;28;19907;-73
2024/01/09 12:26:08;;;;;;;;;;;3.00;99.90;;;;;;5099039;28;19919;-73
2024/01/09 12:28:33;;;;;;;;;;;3.00;99.90;;;;;;5106850;28;19912;-75
2024/01/09 12:31:01;;;;;;;;;;;3.00;99.90;;;;;;5100515;28;19915;-72
2024/01/09 12:33:28;;;;;;;;;;;3.00;99.90;;;;;;5100624;28;19908;-73
2024/01/09 12:35:54;;;;;;;;;;;3.00;99.90;;;;;;5109658;27;19908;-73
2024/01/09 12:38:22;;;;;;;;;;;3.10;99.90;;;;;;5105366;28;19915;-73
2024/01/09 12:40:57;;;;;;;;;;;3.10;99.90;;;;;;5109330;28;20219;-73
2024/01/09 12:43:23;;;;;;;;;;;3.10;99.90;;;;;;5106548;28;19943;-74
2024/01/09 12:45:49;;;;;;;;;;;3.20;99.90;;;;;;5106793;28;19911;-74
2024/01/09 12:48:15;;;;;;;;;;;3.20;99.90;;;;;;5106915;28;19907;-74
2024/01/09 12:50:41;;;;;;;;;;;3.20;99.90;;;;;;5109053;28;20312;-74
2024/01/09 12:53:06;;;;;;;;;;;3.30;99.90;;;;;;5104101;28;20383;-74
2024/01/09 12:55:32;;;;;;;;;;;3.40;99.90;;;;;;5107785;28;20008;-74
2024/01/09 12:57:58;;;;;;;;;;;3.40;99.90;;;;;;5105180;28;19907;-74
2024/01/09 13:00:24;;;;;;;;;;;3.40;99.90;;;;;;5105407;28;19948;-74
2024/01/09 13:02:50;;;;;;;;;;;3.50;99.90;;;;;;5106922;28;19912;-74
2024/01/09 13:05:15;;;;;;;;;;;3.40;99.90;;;;;;5098690;28;19975;-73
2024/01/09 13:07:41;;;;;;;;;;;3.40;99.90;;;;;;5105342;28;19977;-74
2024/01/09 13:10:07;;;;;;;;;;;3.40;99.90;;;;;;5104895;28;19904;-74
2024/01/09 13:12:32;;;;;;;;;;;3.40;99.90;;;;;;5104576;28;19915;-73
2024/01/09 13:14:58;;;;;;;;;;;3.40;99.90;;;;;;5108100;28;19998;-74
2024/01/09 13:17:23;;;;;;;;;;;3.40;99.90;;;;;;5108283;28;19908;-74
2024/01/09 13:19:50;;;;;;;;;;;3.40;99.90;;;;;;5104961;28;19942;-74
2024/01/09 13:22:15;;;;;;;;;;;3.50;99.90;;;;;;5104801;28;20009;-74
2024/01/09 13:24:41;;;;;;;;;;;3.50;99.90;;;;;;5096659;28;19999;-74
2024/01/09 13:27:06;;;;;;;;;;;3.60;99.90;;;;;;5100321;28;20372;-74
2024/01/09 13:29:32;;;;;;;;;;;3.50;99.90;;;;;;5106814;28;19907;-74
2024/01/09 13:31:58;;;;;;;;;;;3.60;99.90;;;;;;5103732;27;20236;-74
2024/01/09 13:34:23;;;;;;;;;;;3.60;99.90;;;;;;5106255;28;19911;-74
2024/01/09 13:36:49;;;;;;;;;;;3.50;99.90;;;;;;5103476;28;20378;-74
2024/01/09 13:39:15;;;;;;;;;;;3.50;99.90;;;;;;5108116;28;20398;-74
2024/01/09 13:41:41;;;;;;;;;;;3.50;99.90;;;;;;5101338;28;20000;-73
2024/01/09 13:44:06;;;;;;;;;;;3.60;99.90;;;;;;5104927;28;19904;-75
2024/01/09 13:46:32;;;;;;;;;;;3.60;99.90;;;;;;5108508;28;19908;-75
2024/01/09 13:48:57;;;;;;;;;;;3.60;99.90;;;;;;5106825;28;19908;-75
2024/01/09 13:51:23;;;;;;;;;;;3.60;99.90;;;;;;5104616;28;19908;-75
2024/01/09 13:53:52;;;;;;;;;;;3.60;99.90;;;;;;5108567;28;19904;-75
2024/01/09 13:56:17;;;;;;;;;;;3.50;99.90;;;;;;5101922;28;19920;-75
2024/01/09 13:58:43;;;;;;;;;;;3.50;99.90;;;;;;5102017;28;20407;-75
2024/01/09 14:01:09;;;;;;;;;;;3.50;99.90;;;;;;5108857;28;20006;-75
2024/01/09 14:03:34;;;;;;;;;;;3.40;99.90;;;;;;5106791;28;19935;-75
2024/01/09 14:06:00;;;;;;;;;;;3.40;99.90;;;;;;5103017;28;19911;-75
2024/01/09 14:08:26;;;;;;;;;;;3.40;99.90;;;;;;5102917;28;19958;-75
2024/01/09 14:10:51;;;;;;;;;;;3.50;99.90;;;;;;5109447;28;20503;-75
2024/01/09 14:13:18;;;;;;;;;;;3.50;99.90;;;;;;5100667;28;20054;-75
2024/01/09 14:15:43;;;;;;;;;;;3.50;99.90;;;;;;5108696;28;19914;-75
2024/01/09 14:18:09;;;;;;;;;;;3.50;99.90;;;;;;5110206;28;19911;-75
2024/01/09 14:20:35;;;;;;;;;;;3.40;99.90;;;;;;5109376;28;19969;-75
2024/01/09 14:23:00;;;;;;;;;;;3.40;99.90;;;;;;5108062;28;19942;-75
2024/01/09 14:25:26;;;;;;;;;;;3.40;99.90;;;;;;5111198;28;19918;-75
2024/01/09 14:27:51;;;;;;;;;;;3.30;99.90;;;;;;5110021;28;19916;-76